< < Back
Terminal Aerodrome Forecast


Current Version              Previous Versions:   1  2  3  4  5  6  7  8  9  

Terminal Aerodrome Forecast

867
FTUS42 KTAE 171700
TAFDHN
TAF
KDHN 171723Z 1718/1818 34007KT P6SM FEW050
     FM180300 35003KT P6SM SKC=



Latest METAR

420
SAUS70 KWBC 171900 RRA
MTRDHN
METAR KDHN 171853Z 00000KT 10SM CLR 32/21 A2994 RMK AO2 SLP134
T03170206


USA.gov is the U.S. government's official web portal to all federal, state and local government web resources and services.